sensor_id;sensor_type;location;lat;lon;timestamp;temperature;humidity
1568;DHT22;777;47.156;8.326;2022-09-24T00:01:34;12.30;99.90
1568;DHT22;777;47.156;8.326;2022-09-24T00:04:05;12.20;99.90
1568;DHT22;777;47.156;8.326;2022-09-24T00:06:35;12.20;99.90
1568;DHT22;777;47.156;8.326;2022-09-24T00:09:03;12.30;99.90
1568;DHT22;777;47.156;8.326;2022-09-24T00:11:30;12.30;99.90
1568;DHT22;777;47.156;8.326;2022-09-24T00:13:57;12.30;99.90
1568;DHT22;777;47.156;8.326;2022-09-24T00:16:29;12.20;99.90
1568;DHT22;777;47.156;8.326;2022-09-24T00:18:58;12.30;99.90
1568;DHT22;777;47.156;8.326;2022-09-24T00:21:28;12.30;99.90
1568;DHT22;777;47.156;8.326;2022-09-24T00:23:56;12.50;99.90
1568;DHT22;777;47.156;8.326;2022-09-24T00:26:24;12.60;99.90
1568;DHT22;777;47.156;8.326;2022-09-24T00:29:11;12.60;99.90
1568;DHT22;777;47.156;8.326;2022-09-24T00:31:39;12.80;99.90
1568;DHT22;777;47.156;8.326;2022-09-24T00:34:07;12.90;99.90
1568;DHT22;777;47.156;8.326;2022-09-24T00:36:35;12.80;99.90
1568;DHT22;777;47.156;8.326;2022-09-24T00:39:02;12.80;99.90
1568;DHT22;777;47.156;8.326;2022-09-24T00:41:32;12.80;99.90
1568;DHT22;777;47.156;8.326;2022-09-24T00:44:00;12.80;99.90
1568;DHT22;777;47.156;8.326;2022-09-24T00:46:31;12.70;99.90
1568;DHT22;777;47.156;8.326;2022-09-24T00:49:05;12.70;99.90
1568;DHT22;777;47.156;8.326;2022-09-24T00:51:37;12.60;99.90
1568;DHT22;777;47.156;8.326;2022-09-24T00:54:07;12.60;99.90
1568;DHT22;777;47.156;8.326;2022-09-24T00:56:37;12.60;99.90
1568;DHT22;777;47.156;8.326;2022-09-24T00:59:08;12.60;99.90
1568;DHT22;777;47.156;8.326;2022-09-24T01:01:37;12.60;99.90
1568;DHT22;777;47.156;8.326;2022-09-24T01:04:06;12.60;99.90
1568;DHT22;777;47.156;8.326;2022-09-24T01:06:33;12.60;99.90
1568;DHT22;777;47.156;8.326;2022-09-24T01:09:00;12.70;99.90
1568;DHT22;777;47.156;8.326;2022-09-24T01:11:37;12.80;99.90
1568;DHT22;777;47.156;8.326;2022-09-24T01:14:26;12.80;99.90
1568;DHT22;777;47.156;8.326;2022-09-24T01:17:04;12.70;99.90
1568;DHT22;777;47.156;8.326;2022-09-24T01:20:02;12.70;99.90
1568;DHT22;777;47.156;8.326;2022-09-24T01:22:42;12.70;99.90
1568;DHT22;777;47.156;8.326;2022-09-24T01:25:21;12.70;99.90
1568;DHT22;777;47.156;8.326;2022-09-24T01:28:05;12.80;99.90
1568;DHT22;777;47.156;8.326;2022-09-24T01:30:37;12.80;99.90
1568;DHT22;777;47.156;8.326;2022-09-24T01:33:08;12.80;99.90
1568;DHT22;777;47.156;8.326;2022-09-24T01:35:42;12.90;99.90
1568;DHT22;777;47.156;8.326;2022-09-24T01:38:13;12.90;99.90
1568;DHT22;777;47.156;8.326;2022-09-24T01:40:43;13.00;99.90
1568;DHT22;777;47.156;8.326;2022-09-24T01:43:12;13.00;99.90
1568;DHT22;777;47.156;8.326;2022-09-24T01:45:42;12.90;99.90
1568;DHT22;777;47.156;8.326;2022-09-24T01:48:09;12.90;99.90
1568;DHT22;777;47.156;8.326;2022-09-24T01:50:41;12.90;99.90
1568;DHT22;777;47.156;8.326;2022-09-24T01:53:16;13.00;99.90
1568;DHT22;777;47.156;8.326;2022-09-24T01:55:56;12.90;99.90
1568;DHT22;777;47.156;8.326;2022-09-24T01:58:28;12.90;99.90
1568;DHT22;777;47.156;8.326;2022-09-24T02:01:00;12.80;99.90
1568;DHT22;777;47.156;8.326;2022-09-24T02:03:33;12.80;99.90
1568;DHT22;777;47.156;8.326;2022-09-24T02:06:04;12.80;99.90
1568;DHT22;777;47.156;8.326;2022-09-24T02:08:38;12.70;99.90
1568;DHT22;777;47.156;8.326;2022-09-24T02:11:09;12.70;99.90
1568;DHT22;777;47.156;8.326;2022-09-24T02:13:42;12.70;99.90
1568;DHT22;777;47.156;8.326;2022-09-24T02:16:14;12.70;99.90
1568;DHT22;777;47.156;8.326;2022-09-24T02:18:45;12.80;99.90
1568;DHT22;777;47.156;8.326;2022-09-24T02:21:16;12.80;99.90
1568;DHT22;777;47.156;8.326;2022-09-24T02:23:46;12.90;99.90
1568;DHT22;777;47.156;8.326;2022-09-24T02:26:14;12.90;99.90
1568;DHT22;777;47.156;8.326;2022-09-24T02:28:42;12.90;99.90
1568;DHT22;777;47.156;8.326;2022-09-24T02:31:14;13.00;99.90
1568;DHT22;777;47.156;8.326;2022-09-24T02:33:46;13.00;99.90
1568;DHT22;777;47.156;8.326;2022-09-24T02:36:32;12.90;99.90
1568;DHT22;777;47.156;8.326;2022-09-24T02:39:00;12.90;99.90
1568;DHT22;777;47.156;8.326;2022-09-24T02:41:28;12.90;99.90
1568;DHT22;777;47.156;8.326;2022-09-24T02:43:55;12.90;99.90
1568;DHT22;777;47.156;8.326;2022-09-24T02:46:24;12.90;99.90
1568;DHT22;777;47.156;8.326;2022-09-24T02:48:51;12.90;99.90
1568;DHT22;777;47.156;8.326;2022-09-24T02:51:18;12.80;99.90
1568;DHT22;777;47.156;8.326;2022-09-24T02:53:46;12.80;99.90
1568;DHT22;777;47.156;8.326;2022-09-24T02:56:13;12.80;99.90
1568;DHT22;777;47.156;8.326;2022-09-24T02:58:40;12.70;99.90
1568;DHT22;777;47.156;8.326;2022-09-24T03:01:07;12.70;99.90
1568;DHT22;777;47.156;8.326;2022-09-24T03:03:36;12.70;99.90
1568;DHT22;777;47.156;8.326;2022-09-24T03:06:03;12.80;99.90
1568;DHT22;777;47.156;8.326;2022-09-24T03:08:31;12.80;99.90
1568;DHT22;777;47.156;8.326;2022-09-24T03:10:59;12.80;99.90
1568;DHT22;777;47.156;8.326;2022-09-24T03:13:26;12.80;99.90
1568;DHT22;777;47.156;8.326;2022-09-24T03:15:53;12.80;99.90
1568;DHT22;777;47.156;8.326;2022-09-24T03:18:21;12.90;99.90
1568;DHT22;777;47.156;8.326;2022-09-24T03:20:55;12.90;99.90
1568;DHT22;777;47.156;8.326;2022-09-24T03:23:23;12.90;99.90
1568;DHT22;777;47.156;8.326;2022-09-24T03:25:50;12.90;99.90
1568;DHT22;777;47.156;8.326;2022-09-24T03:28:17;13.00;99.90
1568;DHT22;777;47.156;8.326;2022-09-24T03:30:44;12.90;99.90
1568;DHT22;777;47.156;8.326;2022-09-24T03:33:26;12.90;99.90
1568;DHT22;777;47.156;8.326;2022-09-24T03:36:00;12.90;99.90
1568;DHT22;777;47.156;8.326;2022-09-24T03:38:27;12.80;99.90
1568;DHT22;777;47.156;8.326;2022-09-24T03:40:54;12.80;99.90
1568;DHT22;777;47.156;8.326;2022-09-24T03:43:22;12.80;99.90
1568;DHT22;777;47.156;8.326;2022-09-24T03:45:49;12.80;99.90
1568;DHT22;777;47.156;8.326;2022-09-24T03:48:17;12.80;99.90
1568;DHT22;777;47.156;8.326;2022-09-24T03:50:44;12.80;99.90
1568;DHT22;777;47.156;8.326;2022-09-24T03:53:13;12.90;99.90
1568;DHT22;777;47.156;8.326;2022-09-24T03:55:44;12.90;99.90
1568;DHT22;777;47.156;8.326;2022-09-24T03:58:12;13.00;99.90
1568;DHT22;777;47.156;8.326;2022-09-24T04:00:39;13.00;99.90
1568;DHT22;777;47.156;8.326;2022-09-24T04:03:07;13.00;99.90
1568;DHT22;777;47.156;8.326;2022-09-24T04:05:34;13.00;99.90
1568;DHT22;777;47.156;8.326;2022-09-24T04:08:02;13.00;99.90
1568;DHT22;777;47.156;8.326;2022-09-24T04:10:31;13.10;99.90
1568;DHT22;777;47.156;8.326;2022-09-24T04:12:58;13.10;99.90
1568;DHT22;777;47.156;8.326;2022-09-24T04:15:26;13.10;99.90
1568;DHT22;777;47.156;8.326;2022-09-24T04:17:55;13.10;99.90
1568;DHT22;777;47.156;8.326;2022-09-24T04:20:24;13.00;99.90
1568;DHT22;777;47.156;8.326;2022-09-24T04:22:53;13.00;99.90
1568;DHT22;777;47.156;8.326;2022-09-24T04:25:21;12.90;99.90
1568;DHT22;777;47.156;8.326;2022-09-24T04:27:53;12.80;99.90
1568;DHT22;777;47.156;8.326;2022-09-24T04:30:21;12.80;99.90
1568;DHT22;777;47.156;8.326;2022-09-24T04:32:48;12.70;99.90
1568;DHT22;777;47.156;8.326;2022-09-24T04:35:16;12.70;99.90
1568;DHT22;777;47.156;8.326;2022-09-24T04:37:44;12.70;99.90
1568;DHT22;777;47.156;8.326;2022-09-24T04:40:12;12.70;99.90
1568;DHT22;777;47.156;8.326;2022-09-24T04:42:42;12.70;99.90
1568;DHT22;777;47.156;8.326;2022-09-24T04:45:11;12.60;99.90
1568;DHT22;777;47.156;8.326;2022-09-24T04:47:39;12.60;99.90
1568;DHT22;777;47.156;8.326;2022-09-24T04:50:08;12.60;99.90
1568;DHT22;777;47.156;8.326;2022-09-24T04:52:36;12.50;99.90
1568;DHT22;777;47.156;8.326;2022-09-24T04:55:03;12.50;99.90
1568;DHT22;777;47.156;8.326;2022-09-24T04:57:31;12.50;99.90
1568;DHT22;777;47.156;8.326;2022-09-24T05:00:02;12.50;99.90
1568;DHT22;777;47.156;8.326;2022-09-24T05:02:31;12.50;99.90
1568;DHT22;777;47.156;8.326;2022-09-24T05:04:58;12.50;99.90
1568;DHT22;777;47.156;8.326;2022-09-24T05:07:25;12.50;99.90
1568;DHT22;777;47.156;8.326;2022-09-24T05:09:52;12.50;99.90
1568;DHT22;777;47.156;8.326;2022-09-24T05:12:19;12.50;99.90
1568;DHT22;777;47.156;8.326;2022-09-24T05:14:46;12.50;99.90
1568;DHT22;777;47.156;8.326;2022-09-24T05:17:13;12.50;99.90
1568;DHT22;777;47.156;8.326;2022-09-24T05:19:42;12.50;99.90
1568;DHT22;777;47.156;8.326;2022-09-24T05:22:09;12.50;99.90
1568;DHT22;777;47.156;8.326;2022-09-24T05:24:36;12.50;99.90
1568;DHT22;777;47.156;8.326;2022-09-24T05:27:03;12.50;99.90
1568;DHT22;777;47.156;8.326;2022-09-24T05:29:36;12.60;99.90
1568;DHT22;777;47.156;8.326;2022-09-24T05:32:04;12.50;99.90
1568;DHT22;777;47.156;8.326;2022-09-24T05:34:31;12.50;99.90
1568;DHT22;777;47.156;8.326;2022-09-24T05:37:00;12.50;99.90
1568;DHT22;777;47.156;8.326;2022-09-24T05:39:27;12.50;99.90
1568;DHT22;777;47.156;8.326;2022-09-24T05:41:55;12.50;99.90
1568;DHT22;777;47.156;8.326;2022-09-24T05:44:22;12.50;99.90
1568;DHT22;777;47.156;8.326;2022-09-24T05:46:50;12.50;99.90
1568;DHT22;777;47.156;8.326;2022-09-24T05:49:18;12.50;99.90
1568;DHT22;777;47.156;8.326;2022-09-24T05:51:47;12.50;99.90
1568;DHT22;777;47.156;8.326;2022-09-24T05:54:16;12.50;99.90
1568;DHT22;777;47.156;8.326;2022-09-24T05:56:44;12.50;99.90
1568;DHT22;777;47.156;8.326;2022-09-24T05:59:12;12.50;99.90
1568;DHT22;777;47.156;8.326;2022-09-24T06:01:38;12.50;99.90
1568;DHT22;777;47.156;8.326;2022-09-24T06:04:06;12.60;99.90
1568;DHT22;777;47.156;8.326;2022-09-24T06:06:33;12.60;99.90
1568;DHT22;777;47.156;8.326;2022-09-24T06:09:00;12.60;99.90
1568;DHT22;777;47.156;8.326;2022-09-24T06:11:30;12.60;99.90
1568;DHT22;777;47.156;8.326;2022-09-24T06:14:00;12.60;99.90
1568;DHT22;777;47.156;8.326;2022-09-24T06:16:28;12.60;99.90
1568;DHT22;777;47.156;8.326;2022-09-24T06:18:55;12.70;99.90
1568;DHT22;777;47.156;8.326;2022-09-24T06:21:22;12.70;99.90
1568;DHT22;777;47.156;8.326;2022-09-24T06:23:49;12.60;99.90
1568;DHT22;777;47.156;8.326;2022-09-24T06:26:16;12.60;99.90
1568;DHT22;777;47.156;8.326;2022-09-24T06:28:44;12.60;99.90
1568;DHT22;777;47.156;8.326;2022-09-24T06:31:11;12.60;99.90
1568;DHT22;777;47.156;8.326;2022-09-24T06:33:38;12.60;99.90
1568;DHT22;777;47.156;8.326;2022-09-24T06:36:07;12.70;99.90
1568;DHT22;777;47.156;8.326;2022-09-24T06:38:34;12.70;99.90
1568;DHT22;777;47.156;8.326;2022-09-24T06:41:04;12.80;99.90
1568;DHT22;777;47.156;8.326;2022-09-24T06:43:32;12.80;99.90
1568;DHT22;777;47.156;8.326;2022-09-24T06:46:01;12.70;99.90
1568;DHT22;777;47.156;8.326;2022-09-24T06:48:30;12.70;99.90
1568;DHT22;777;47.156;8.326;2022-09-24T06:50:57;12.80;99.90
1568;DHT22;777;47.156;8.326;2022-09-24T06:53:24;12.80;99.90
1568;DHT22;777;47.156;8.326;2022-09-24T06:55:54;12.90;99.90
1568;DHT22;777;47.156;8.326;2022-09-24T06:58:21;12.90;99.90
1568;DHT22;777;47.156;8.326;2022-09-24T07:00:50;12.90;99.90
1568;DHT22;777;47.156;8.326;2022-09-24T07:03:20;12.90;99.90
1568;DHT22;777;47.156;8.326;2022-09-24T07:05:47;12.90;99.90
1568;DHT22;777;47.156;8.326;2022-09-24T07:08:14;12.90;99.90
1568;DHT22;777;47.156;8.326;2022-09-24T07:10:43;12.90;99.90
1568;DHT22;777;47.156;8.326;2022-09-24T07:13:11;12.90;99.90
1568;DHT22;777;47.156;8.326;2022-09-24T07:15:38;12.80;99.90
1568;DHT22;777;47.156;8.326;2022-09-24T07:18:06;12.80;99.90
1568;DHT22;777;47.156;8.326;2022-09-24T07:20:34;12.70;99.90
1568;DHT22;777;47.156;8.326;2022-09-24T07:23:03;12.70;99.90
1568;DHT22;777;47.156;8.326;2022-09-24T07:25:30;12.60;99.90
1568;DHT22;777;47.156;8.326;2022-09-24T07:28:00;12.70;99.90
1568;DHT22;777;47.156;8.326;2022-09-24T07:30:28;12.70;99.90
1568;DHT22;777;47.156;8.326;2022-09-24T07:32:56;12.70;99.90
1568;DHT22;777;47.156;8.326;2022-09-24T07:35:23;12.70;99.90
1568;DHT22;777;47.156;8.326;2022-09-24T07:37:59;12.80;99.90
1568;DHT22;777;47.156;8.326;2022-09-24T07:40:27;12.90;99.90
1568;DHT22;777;47.156;8.326;2022-09-24T07:42:54;12.80;99.90
1568;DHT22;777;47.156;8.326;2022-09-24T07:45:21;12.80;99.90
1568;DHT22;777;47.156;8.326;2022-09-24T07:47:55;12.70;99.90
1568;DHT22;777;47.156;8.326;2022-09-24T07:50:23;12.60;99.90
1568;DHT22;777;47.156;8.326;2022-09-24T07:52:51;12.60;99.90
1568;DHT22;777;47.156;8.326;2022-09-24T07:55:19;12.60;99.90
1568;DHT22;777;47.156;8.326;2022-09-24T07:57:46;12.70;99.90
1568;DHT22;777;47.156;8.326;2022-09-24T08:00:15;12.80;99.90
1568;DHT22;777;47.156;8.326;2022-09-24T08:02:43;12.80;99.90
1568;DHT22;777;47.156;8.326;2022-09-24T08:05:10;12.70;99.90
1568;DHT22;777;47.156;8.326;2022-09-24T08:07:37;12.70;99.90
1568;DHT22;777;47.156;8.326;2022-09-24T08:10:05;12.60;99.90
1568;DHT22;777;47.156;8.326;2022-09-24T08:12:33;12.60;99.90
1568;DHT22;777;47.156;8.326;2022-09-24T08:15:00;12.60;99.90
1568;DHT22;777;47.156;8.326;2022-09-24T08:17:27;12.70;99.90
1568;DHT22;777;47.156;8.326;2022-09-24T08:19:54;12.70;99.90
1568;DHT22;777;47.156;8.326;2022-09-24T08:22:21;12.80;99.90
1568;DHT22;777;47.156;8.326;2022-09-24T08:24:48;12.70;99.90
1568;DHT22;777;47.156;8.326;2022-09-24T08:27:16;12.70;99.90
1568;DHT22;777;47.156;8.326;2022-09-24T08:29:46;12.70;99.90
1568;DHT22;777;47.156;8.326;2022-09-24T08:32:13;12.70;99.90
1568;DHT22;777;47.156;8.326;2022-09-24T08:34:40;12.70;99.90
1568;DHT22;777;47.156;8.326;2022-09-24T08:37:07;12.70;99.90
1568;DHT22;777;47.156;8.326;2022-09-24T08:39:34;12.80;99.90
1568;DHT22;777;47.156;8.326;2022-09-24T08:42:03;12.70;99.90
1568;DHT22;777;47.156;8.326;2022-09-24T08:44:36;12.70;99.90
1568;DHT22;777;47.156;8.326;2022-09-24T08:47:33;12.60;99.90
1568;DHT22;777;47.156;8.326;2022-09-24T08:50:07;12.70;99.90
1568;DHT22;777;47.156;8.326;2022-09-24T08:52:41;12.80;99.90
1568;DHT22;777;47.156;8.326;2022-09-24T08:55:14;12.80;99.90
1568;DHT22;777;47.156;8.326;2022-09-24T08:57:53;12.90;99.90
1568;DHT22;777;47.156;8.326;2022-09-24T09:00:21;12.90;99.90
1568;DHT22;777;47.156;8.326;2022-09-24T09:02:54;13.00;99.90
1568;DHT22;777;47.156;8.326;2022-09-24T09:05:29;13.10;99.90
1568;DHT22;777;47.156;8.326;2022-09-24T09:08:08;13.00;99.90
1568;DHT22;777;47.156;8.326;2022-09-24T09:10:40;13.00;99.90
1568;DHT22;777;47.156;8.326;2022-09-24T09:13:12;12.90;99.90
1568;DHT22;777;47.156;8.326;2022-09-24T09:15:44;13.00;99.90
1568;DHT22;777;47.156;8.326;2022-09-24T09:18:18;13.00;99.90
1568;DHT22;777;47.156;8.326;2022-09-24T09:20:48;13.00;99.90
1568;DHT22;777;47.156;8.326;2022-09-24T09:23:18;13.10;99.90
1568;DHT22;777;47.156;8.326;2022-09-24T09:25:49;13.20;99.90
1568;DHT22;777;47.156;8.326;2022-09-24T09:28:18;13.20;99.90
1568;DHT22;777;47.156;8.326;2022-09-24T09:30:58;13.30;99.90
1568;DHT22;777;47.156;8.326;2022-09-24T09:33:44;13.30;99.90
1568;DHT22;777;47.156;8.326;2022-09-24T09:36:40;13.20;99.90
1568;DHT22;777;47.156;8.326;2022-09-24T09:39:21;13.20;99.90
1568;DHT22;777;47.156;8.326;2022-09-24T09:41:59;13.00;99.90
1568;DHT22;777;47.156;8.326;2022-09-24T09:44:37;13.10;99.90
1568;DHT22;777;47.156;8.326;2022-09-24T09:47:14;13.10;99.90
1568;DHT22;777;47.156;8.326;2022-09-24T09:49:46;13.20;99.90
1568;DHT22;777;47.156;8.326;2022-09-24T09:52:18;13.10;99.90
1568;DHT22;777;47.156;8.326;2022-09-24T09:54:46;13.10;99.90
1568;DHT22;777;47.156;8.326;2022-09-24T09:57:15;13.10;99.90
1568;DHT22;777;47.156;8.326;2022-09-24T09:59:46;13.00;99.90
1568;DHT22;777;47.156;8.326;2022-09-24T10:02:21;13.00;99.90
1568;DHT22;777;47.156;8.326;2022-09-24T10:04:53;13.00;99.90
1568;DHT22;777;47.156;8.326;2022-09-24T10:07:21;13.10;99.90
1568;DHT22;777;47.156;8.326;2022-09-24T10:09:58;13.20;99.90
1568;DHT22;777;47.156;8.326;2022-09-24T10:12:26;13.30;99.90
1568;DHT22;777;47.156;8.326;2022-09-24T10:14:58;13.30;99.90
1568;DHT22;777;47.156;8.326;2022-09-24T10:17:28;13.40;99.90
1568;DHT22;777;47.156;8.326;2022-09-24T10:19:59;13.40;99.90
1568;DHT22;777;47.156;8.326;2022-09-24T10:22:27;13.40;99.90
1568;DHT22;777;47.156;8.326;2022-09-24T10:24:56;13.40;99.90
1568;DHT22;777;47.156;8.326;2022-09-24T10:27:30;13.50;99.90
1568;DHT22;777;47.156;8.326;2022-09-24T10:29:58;13.70;99.90
1568;DHT22;777;47.156;8.326;2022-09-24T10:32:43;13.90;99.90
1568;DHT22;777;47.156;8.326;2022-09-24T10:35:24;13.80;99.90
1568;DHT22;777;47.156;8.326;2022-09-24T10:37:53;13.60;99.90
1568;DHT22;777;47.156;8.326;2022-09-24T10:40:23;13.50;99.90
1568;DHT22;777;47.156;8.326;2022-09-24T10:42:57;13.60;99.90
1568;DHT22;777;47.156;8.326;2022-09-24T10:45:48;13.60;99.90
1568;DHT22;777;47.156;8.326;2022-09-24T10:48:22;13.70;99.90
1568;DHT22;777;47.156;8.326;2022-09-24T10:50:59;13.90;99.90
1568;DHT22;777;47.156;8.326;2022-09-24T10:53:36;14.00;99.90
1568;DHT22;777;47.156;8.326;2022-09-24T10:56:14;14.10;99.90
1568;DHT22;777;47.156;8.326;2022-09-24T10:59:11;14.30;99.90
1568;DHT22;777;47.156;8.326;2022-09-24T11:01:47;14.40;99.90
1568;DHT22;777;47.156;8.326;2022-09-24T11:04:36;14.60;99.90
1568;DHT22;777;47.156;8.326;2022-09-24T11:07:37;14.60;99.90
1568;DHT22;777;47.156;8.326;2022-09-24T11:10:20;14.60;99.90
1568;DHT22;777;47.156;8.326;2022-09-24T11:12:56;14.60;99.90
1568;DHT22;777;47.156;8.326;2022-09-24T11:15:42;14.60;99.90
1568;DHT22;777;47.156;8.326;2022-09-24T11:18:29;14.70;99.90
1568;DHT22;777;47.156;8.326;2022-09-24T11:21:06;14.90;99.90
1568;DHT22;777;47.156;8.326;2022-09-24T11:23:50;15.10;99.90
1568;DHT22;777;47.156;8.326;2022-09-24T11:26:26;15.20;99.90
1568;DHT22;777;47.156;8.326;2022-09-24T11:29:08;15.30;99.90
1568;DHT22;777;47.156;8.326;2022-09-24T11:31:39;15.50;99.90
1568;DHT22;777;47.156;8.326;2022-09-24T11:34:25;15.80;99.90
1568;DHT22;777;47.156;8.326;2022-09-24T11:37:06;16.20;99.90
1568;DHT22;777;47.156;8.326;2022-09-24T11:39:52;16.30;99.90
1568;DHT22;777;47.156;8.326;2022-09-24T11:42:24;16.40;99.90
1568;DHT22;777;47.156;8.326;2022-09-24T11:45:16;16.40;99.90
1568;DHT22;777;47.156;8.326;2022-09-24T11:48:00;16.20;99.90
1568;DHT22;777;47.156;8.326;2022-09-24T11:50:41;16.30;99.90
1568;DHT22;777;47.156;8.326;2022-09-24T11:53:13;16.40;99.90
1568;DHT22;777;47.156;8.326;2022-09-24T11:55:48;16.30;99.90
1568;DHT22;777;47.156;8.326;2022-09-24T11:58:23;16.30;99.90
1568;DHT22;777;47.156;8.326;2022-09-24T12:00:54;16.30;99.90
1568;DHT22;777;47.156;8.326;2022-09-24T12:03:23;16.40;99.90
1568;DHT22;777;47.156;8.326;2022-09-24T12:05:59;16.60;99.90
1568;DHT22;777;47.156;8.326;2022-09-24T12:08:32;16.70;99.90
1568;DHT22;777;47.156;8.326;2022-09-24T12:11:08;16.40;99.90
1568;DHT22;777;47.156;8.326;2022-09-24T12:13:40;16.20;99.90
1568;DHT22;777;47.156;8.326;2022-09-24T12:16:12;15.90;99.90
1568;DHT22;777;47.156;8.326;2022-09-24T12:18:44;15.80;99.90
1568;DHT22;777;47.156;8.326;2022-09-24T12:21:18;16.00;99.90
1568;DHT22;777;47.156;8.326;2022-09-24T12:23:47;16.30;99.90
1568;DHT22;777;47.156;8.326;2022-09-24T12:26:19;16.60;99.90
1568;DHT22;777;47.156;8.326;2022-09-24T12:28:56;16.80;99.90
1568;DHT22;777;47.156;8.326;2022-09-24T12:31:43;17.40;99.90
1568;DHT22;777;47.156;8.326;2022-09-24T12:34:33;17.70;99.90
1568;DHT22;777;47.156;8.326;2022-09-24T12:37:08;17.80;99.90
1568;DHT22;777;47.156;8.326;2022-09-24T12:39:45;17.80;99.90
1568;DHT22;777;47.156;8.326;2022-09-24T12:42:19;17.80;99.90
1568;DHT22;777;47.156;8.326;2022-09-24T12:44:51;17.60;99.90
1568;DHT22;777;47.156;8.326;2022-09-24T12:47:21;17.50;99.90
1568;DHT22;777;47.156;8.326;2022-09-24T12:49:52;17.30;99.90
1568;DHT22;777;47.156;8.326;2022-09-24T12:52:24;17.10;99.90
1568;DHT22;777;47.156;8.326;2022-09-24T12:54:55;17.00;99.90
1568;DHT22;777;47.156;8.326;2022-09-24T12:57:30;16.90;99.90
1568;DHT22;777;47.156;8.326;2022-09-24T12:59:59;16.90;99.90
1568;DHT22;777;47.156;8.326;2022-09-24T13:02:28;16.70;99.90
1568;DHT22;777;47.156;8.326;2022-09-24T13:05:15;16.50;99.90
1568;DHT22;777;47.156;8.326;2022-09-24T13:07:54;16.00;99.90
1568;DHT22;777;47.156;8.326;2022-09-24T13:10:24;15.70;99.90
1568;DHT22;777;47.156;8.326;2022-09-24T13:12:54;15.50;99.90
1568;DHT22;777;47.156;8.326;2022-09-24T13:15:32;15.40;99.90
1568;DHT22;777;47.156;8.326;2022-09-24T13:18:17;15.30;99.90
1568;DHT22;777;47.156;8.326;2022-09-24T13:21:03;15.20;99.90
1568;DHT22;777;47.156;8.326;2022-09-24T13:23:45;15.00;99.90
1568;DHT22;777;47.156;8.326;2022-09-24T13:26:26;14.90;99.90
1568;DHT22;777;47.156;8.326;2022-09-24T13:28:56;14.50;99.90
1568;DHT22;777;47.156;8.326;2022-09-24T13:31:32;14.30;99.90
1568;DHT22;777;47.156;8.326;2022-09-24T13:34:03;14.20;99.90
1568;DHT22;777;47.156;8.326;2022-09-24T13:36:43;14.30;99.90
1568;DHT22;777;47.156;8.326;2022-09-24T13:39:15;14.30;99.90
1568;DHT22;777;47.156;8.326;2022-09-24T13:41:50;14.40;99.90
1568;DHT22;777;47.156;8.326;2022-09-24T13:44:22;14.40;99.90
1568;DHT22;777;47.156;8.326;2022-09-24T13:46:56;14.50;99.90
1568;DHT22;777;47.156;8.326;2022-09-24T13:49:25;14.60;99.90
1568;DHT22;777;47.156;8.326;2022-09-24T13:52:03;14.40;99.90
1568;DHT22;777;47.156;8.326;2022-09-24T13:54:36;14.40;99.90
1568;DHT22;777;47.156;8.326;2022-09-24T13:57:11;14.30;99.90
1568;DHT22;777;47.156;8.326;2022-09-24T13:59:41;14.30;99.90
1568;DHT22;777;47.156;8.326;2022-09-24T14:02:23;14.40;99.90
1568;DHT22;777;47.156;8.326;2022-09-24T14:04:55;14.50;99.90
1568;DHT22;777;47.156;8.326;2022-09-24T14:07:23;14.50;99.90
1568;DHT22;777;47.156;8.326;2022-09-24T14:10:02;14.90;99.90
1568;DHT22;777;47.156;8.326;2022-09-24T14:12:29;15.20;99.90
1568;DHT22;777;47.156;8.326;2022-09-24T14:14:57;15.40;99.90
1568;DHT22;777;47.156;8.326;2022-09-24T14:17:25;15.50;99.90
1568;DHT22;777;47.156;8.326;2022-09-24T14:19:55;15.50;99.90
1568;DHT22;777;47.156;8.326;2022-09-24T14:22:26;15.50;99.90
1568;DHT22;777;47.156;8.326;2022-09-24T14:24:57;15.50;99.90
1568;DHT22;777;47.156;8.326;2022-09-24T14:27:27;15.70;99.90
1568;DHT22;777;47.156;8.326;2022-09-24T14:29:58;16.00;99.90
1568;DHT22;777;47.156;8.326;2022-09-24T14:32:28;16.10;99.90
1568;DHT22;777;47.156;8.326;2022-09-24T14:34:58;16.10;99.90
1568;DHT22;777;47.156;8.326;2022-09-24T14:37:28;16.60;99.90
1568;DHT22;777;47.156;8.326;2022-09-24T14:39:59;17.00;99.90
1568;DHT22;777;47.156;8.326;2022-09-24T14:42:31;17.00;99.90
1568;DHT22;777;47.156;8.326;2022-09-24T14:45:01;16.70;99.90
1568;DHT22;777;47.156;8.326;2022-09-24T14:47:31;16.80;99.90
1568;DHT22;777;47.156;8.326;2022-09-24T14:49:59;17.80;99.90
1568;DHT22;777;47.156;8.326;2022-09-24T14:52:30;18.20;99.90
1568;DHT22;777;47.156;8.326;2022-09-24T14:55:12;18.10;99.90
1568;DHT22;777;47.156;8.326;2022-09-24T14:57:40;17.80;99.90
1568;DHT22;777;47.156;8.326;2022-09-24T15:00:31;18.00;99.90
1568;DHT22;777;47.156;8.326;2022-09-24T15:03:03;19.60;99.90
1568;DHT22;777;47.156;8.326;2022-09-24T15:05:31;19.60;99.90
1568;DHT22;777;47.156;8.326;2022-09-24T15:08:18;20.50;99.90
1568;DHT22;777;47.156;8.326;2022-09-24T15:10:51;22.10;99.90
1568;DHT22;777;47.156;8.326;2022-09-24T15:13:22;23.00;99.90
1568;DHT22;777;47.156;8.326;2022-09-24T15:16:02;22.20;99.90
1568;DHT22;777;47.156;8.326;2022-09-24T15:18:30;23.40;99.90
1568;DHT22;777;47.156;8.326;2022-09-24T15:20:59;25.00;99.90
1568;DHT22;777;47.156;8.326;2022-09-24T15:23:28;26.20;99.90
1568;DHT22;777;47.156;8.326;2022-09-24T15:25:55;26.70;99.90
1568;DHT22;777;47.156;8.326;2022-09-24T15:28:22;28.60;99.90
1568;DHT22;777;47.156;8.326;2022-09-24T15:30:54;28.00;99.90
1568;DHT22;777;47.156;8.326;2022-09-24T15:33:22;26.80;99.90
1568;DHT22;777;47.156;8.326;2022-09-24T15:35:49;25.30;99.90
1568;DHT22;777;47.156;8.326;2022-09-24T15:38:18;23.50;99.90
1568;DHT22;777;47.156;8.326;2022-09-24T15:40:45;21.90;99.90
1568;DHT22;777;47.156;8.326;2022-09-24T15:43:20;20.60;99.90
1568;DHT22;777;47.156;8.326;2022-09-24T15:45:48;19.80;99.90
1568;DHT22;777;47.156;8.326;2022-09-24T15:48:15;19.10;99.90
1568;DHT22;777;47.156;8.326;2022-09-24T15:50:45;19.20;99.90
1568;DHT22;777;47.156;8.326;2022-09-24T15:53:18;19.30;99.90
1568;DHT22;777;47.156;8.326;2022-09-24T15:55:47;19.20;99.90
1568;DHT22;777;47.156;8.326;2022-09-24T15:58:16;18.80;99.90
1568;DHT22;777;47.156;8.326;2022-09-24T16:00:43;18.70;99.90
1568;DHT22;777;47.156;8.326;2022-09-24T16:03:17;19.00;99.90
1568;DHT22;777;47.156;8.326;2022-09-24T16:05:46;20.90;99.90
1568;DHT22;777;47.156;8.326;2022-09-24T16:08:14;22.60;99.90
1568;DHT22;777;47.156;8.326;2022-09-24T16:10:41;22.30;99.90
1568;DHT22;777;47.156;8.326;2022-09-24T16:13:09;21.10;99.90
1568;DHT22;777;47.156;8.326;2022-09-24T16:15:37;20.30;99.90
1568;DHT22;777;47.156;8.326;2022-09-24T16:18:05;19.20;99.90
1568;DHT22;777;47.156;8.326;2022-09-24T16:20:33;18.20;99.90
1568;DHT22;777;47.156;8.326;2022-09-24T16:23:01;17.40;99.90
1568;DHT22;777;47.156;8.326;2022-09-24T16:25:28;16.60;99.90
1568;DHT22;777;47.156;8.326;2022-09-24T16:27:56;16.10;99.90
1568;DHT22;777;47.156;8.326;2022-09-24T16:30:23;15.80;99.90
1568;DHT22;777;47.156;8.326;2022-09-24T16:32:51;15.50;99.90
1568;DHT22;777;47.156;8.326;2022-09-24T16:35:18;15.20;99.90
1568;DHT22;777;47.156;8.326;2022-09-24T16:37:46;15.00;99.90
1568;DHT22;777;47.156;8.326;2022-09-24T16:40:15;14.80;99.90
1568;DHT22;777;47.156;8.326;2022-09-24T16:42:42;14.60;99.90
1568;DHT22;777;47.156;8.326;2022-09-24T16:45:10;14.50;99.90